sensor_id;sensor_type;location;lat;lon;timestamp;P1;durP1;ratioP1;P2;durP2;ratioP2
26536;SDS011;14204;51.262;5.488;2022-09-14T00:00:26;8.82;;;4.47;;
26536;SDS011;14204;51.262;5.488;2022-09-14T00:02:51;9.07;;;4.28;;
26536;SDS011;14204;51.262;5.488;2022-09-14T00:05:18;6.72;;;4.50;;
26536;SDS011;14204;51.262;5.488;2022-09-14T00:07:44;7.43;;;4.28;;
26536;SDS011;14204;51.262;5.488;2022-09-14T00:10:10;11.45;;;5.35;;
26536;SDS011;14204;51.262;5.488;2022-09-14T00:12:35;8.20;;;5.00;;
26536;SDS011;14204;51.262;5.488;2022-09-14T00:15:01;10.27;;;4.90;;
26536;SDS011;14204;51.262;5.488;2022-09-14T00:17:27;9.23;;;5.07;;
26536;SDS011;14204;51.262;5.488;2022-09-14T00:19:53;10.98;;;5.28;;
26536;SDS011;14204;51.262;5.488;2022-09-14T00:22:19;10.52;;;4.80;;
26536;SDS011;14204;51.262;5.488;2022-09-14T00:24:45;8.40;;;5.45;;
26536;SDS011;14204;51.262;5.488;2022-09-14T00:27:10;9.60;;;4.95;;
26536;SDS011;14204;51.262;5.488;2022-09-14T00:29:36;8.38;;;4.80;;
26536;SDS011;14204;51.262;5.488;2022-09-14T00:32:02;10.60;;;5.32;;
26536;SDS011;14204;51.262;5.488;2022-09-14T00:34:27;10.43;;;6.18;;
26536;SDS011;14204;51.262;5.488;2022-09-14T00:36:53;12.80;;;5.05;;
26536;SDS011;14204;51.262;5.488;2022-09-14T00:39:20;9.75;;;5.03;;
26536;SDS011;14204;51.262;5.488;2022-09-14T00:41:52;9.82;;;5.85;;
26536;SDS011;14204;51.262;5.488;2022-09-14T00:46:45;8.50;;;5.88;;
26536;SDS011;14204;51.262;5.488;2022-09-14T00:49:24;11.75;;;5.65;;
26536;SDS011;14204;51.262;5.488;2022-09-14T00:54:44;9.85;;;5.20;;
26536;SDS011;14204;51.262;5.488;2022-09-14T00:57:13;12.27;;;5.32;;
26536;SDS011;14204;51.262;5.488;2022-09-14T00:59:40;11.65;;;5.95;;
26536;SDS011;14204;51.262;5.488;2022-09-14T01:02:08;14.02;;;5.72;;
26536;SDS011;14204;51.262;5.488;2022-09-14T01:04:35;16.95;;;5.63;;
26536;SDS011;14204;51.262;5.488;2022-09-14T01:09:40;14.27;;;5.10;;
26536;SDS011;14204;51.262;5.488;2022-09-14T01:12:33;16.02;;;5.78;;
26536;SDS011;14204;51.262;5.488;2022-09-14T01:15:25;11.07;;;5.30;;
26536;SDS011;14204;51.262;5.488;2022-09-14T01:17:56;8.27;;;4.72;;
26536;SDS011;14204;51.262;5.488;2022-09-14T01:23:06;11.55;;;5.10;;
26536;SDS011;14204;51.262;5.488;2022-09-14T01:28:21;10.00;;;5.05;;
26536;SDS011;14204;51.262;5.488;2022-09-14T01:30:48;10.63;;;4.93;;
26536;SDS011;14204;51.262;5.488;2022-09-14T01:33:18;12.23;;;5.00;;
26536;SDS011;14204;51.262;5.488;2022-09-14T01:35:52;11.65;;;5.00;;
26536;SDS011;14204;51.262;5.488;2022-09-14T01:41:03;11.52;;;4.95;;
26536;SDS011;14204;51.262;5.488;2022-09-14T01:43:35;14.73;;;5.57;;
26536;SDS011;14204;51.262;5.488;2022-09-14T01:46:15;14.15;;;5.28;;
26536;SDS011;14204;51.262;5.488;2022-09-14T01:48:49;12.82;;;5.30;;
26536;SDS011;14204;51.262;5.488;2022-09-14T01:51:34;11.50;;;5.60;;
26536;SDS011;14204;51.262;5.488;2022-09-14T01:54:09;11.50;;;5.45;;
26536;SDS011;14204;51.262;5.488;2022-09-14T01:56:46;11.48;;;5.50;;
26536;SDS011;14204;51.262;5.488;2022-09-14T01:59:26;7.35;;;4.97;;
26536;SDS011;14204;51.262;5.488;2022-09-14T02:02:02;13.97;;;5.13;;
26536;SDS011;14204;51.262;5.488;2022-09-14T02:04:40;11.88;;;5.72;;
26536;SDS011;14204;51.262;5.488;2022-09-14T02:07:14;15.85;;;6.53;;
26536;SDS011;14204;51.262;5.488;2022-09-14T02:09:41;13.07;;;5.93;;
26536;SDS011;14204;51.262;5.488;2022-09-14T02:12:07;13.18;;;5.65;;
26536;SDS011;14204;51.262;5.488;2022-09-14T02:14:33;16.52;;;7.40;;
26536;SDS011;14204;51.262;5.488;2022-09-14T02:16:59;12.48;;;6.10;;
26536;SDS011;14204;51.262;5.488;2022-09-14T02:19:25;14.52;;;5.85;;
26536;SDS011;14204;51.262;5.488;2022-09-14T02:21:57;13.65;;;6.95;;
26536;SDS011;14204;51.262;5.488;2022-09-14T02:24:23;9.55;;;6.35;;
26536;SDS011;14204;51.262;5.488;2022-09-14T02:26:50;15.13;;;6.90;;
26536;SDS011;14204;51.262;5.488;2022-09-14T02:29:17;9.57;;;6.15;;
26536;SDS011;14204;51.262;5.488;2022-09-14T02:31:56;13.55;;;5.18;;
26536;SDS011;14204;51.262;5.488;2022-09-14T02:34:29;12.13;;;5.75;;
26536;SDS011;14204;51.262;5.488;2022-09-14T02:37:28;12.75;;;6.25;;
26536;SDS011;14204;51.262;5.488;2022-09-14T02:42:57;17.42;;;5.55;;
26536;SDS011;14204;51.262;5.488;2022-09-14T02:51:02;10.98;;;5.22;;
26536;SDS011;14204;51.262;5.488;2022-09-14T02:55:51;7.70;;;5.30;;
26536;SDS011;14204;51.262;5.488;2022-09-14T02:58:23;11.45;;;5.82;;
26536;SDS011;14204;51.262;5.488;2022-09-14T03:00:49;11.13;;;6.05;;
26536;SDS011;14204;51.262;5.488;2022-09-14T03:03:16;12.35;;;5.90;;
26536;SDS011;14204;51.262;5.488;2022-09-14T03:05:43;17.60;;;6.35;;
26536;SDS011;14204;51.262;5.488;2022-09-14T03:08:09;15.73;;;5.85;;
26536;SDS011;14204;51.262;5.488;2022-09-14T03:10:36;12.90;;;6.95;;
26536;SDS011;14204;51.262;5.488;2022-09-14T03:13:02;14.32;;;6.05;;
26536;SDS011;14204;51.262;5.488;2022-09-14T03:15:28;16.95;;;5.78;;
26536;SDS011;14204;51.262;5.488;2022-09-14T03:17:54;12.45;;;6.70;;
26536;SDS011;14204;51.262;5.488;2022-09-14T03:20:24;11.23;;;6.05;;
26536;SDS011;14204;51.262;5.488;2022-09-14T03:22:52;15.38;;;6.63;;
26536;SDS011;14204;51.262;5.488;2022-09-14T03:25:18;17.08;;;5.38;;
26536;SDS011;14204;51.262;5.488;2022-09-14T03:27:48;15.35;;;5.78;;
26536;SDS011;14204;51.262;5.488;2022-09-14T03:30:14;10.98;;;5.70;;
26536;SDS011;14204;51.262;5.488;2022-09-14T03:32:41;11.30;;;6.30;;
26536;SDS011;14204;51.262;5.488;2022-09-14T03:35:06;15.20;;;7.22;;
26536;SDS011;14204;51.262;5.488;2022-09-14T03:37:35;9.13;;;5.13;;
26536;SDS011;14204;51.262;5.488;2022-09-14T03:42:32;11.73;;;5.80;;
26536;SDS011;14204;51.262;5.488;2022-09-14T03:44:58;16.58;;;5.65;;
26536;SDS011;14204;51.262;5.488;2022-09-14T03:47:24;13.85;;;5.72;;
26536;SDS011;14204;51.262;5.488;2022-09-14T03:49:50;12.90;;;6.40;;
26536;SDS011;14204;51.262;5.488;2022-09-14T03:52:16;11.38;;;5.82;;
26536;SDS011;14204;51.262;5.488;2022-09-14T03:54:42;12.98;;;6.28;;
26536;SDS011;14204;51.262;5.488;2022-09-14T03:57:08;13.65;;;6.05;;
26536;SDS011;14204;51.262;5.488;2022-09-14T03:59:33;14.02;;;5.53;;
26536;SDS011;14204;51.262;5.488;2022-09-14T04:01:59;9.55;;;5.07;;
26536;SDS011;14204;51.262;5.488;2022-09-14T04:04:26;11.65;;;5.57;;
26536;SDS011;14204;51.262;5.488;2022-09-14T04:06:52;13.70;;;5.50;;
26536;SDS011;14204;51.262;5.488;2022-09-14T04:09:19;15.05;;;5.60;;
26536;SDS011;14204;51.262;5.488;2022-09-14T04:11:45;13.80;;;5.15;;
26536;SDS011;14204;51.262;5.488;2022-09-14T04:14:11;13.50;;;5.45;;
26536;SDS011;14204;51.262;5.488;2022-09-14T04:16:37;13.20;;;6.13;;
26536;SDS011;14204;51.262;5.488;2022-09-14T04:19:04;8.13;;;5.72;;
26536;SDS011;14204;51.262;5.488;2022-09-14T04:21:29;11.98;;;5.43;;
26536;SDS011;14204;51.262;5.488;2022-09-14T04:23:55;17.00;;;6.10;;
26536;SDS011;14204;51.262;5.488;2022-09-14T04:26:23;17.15;;;5.88;;
26536;SDS011;14204;51.262;5.488;2022-09-14T04:28:51;16.88;;;6.28;;
26536;SDS011;14204;51.262;5.488;2022-09-14T04:31:17;15.02;;;6.05;;
26536;SDS011;14204;51.262;5.488;2022-09-14T04:33:43;14.20;;;6.03;;
26536;SDS011;14204;51.262;5.488;2022-09-14T04:36:11;13.57;;;5.82;;
26536;SDS011;14204;51.262;5.488;2022-09-14T04:38:39;10.35;;;4.65;;
26536;SDS011;14204;51.262;5.488;2022-09-14T04:41:06;14.68;;;5.53;;
26536;SDS011;14204;51.262;5.488;2022-09-14T04:43:33;9.70;;;5.50;;
26536;SDS011;14204;51.262;5.488;2022-09-14T04:46:03;14.48;;;6.60;;
26536;SDS011;14204;51.262;5.488;2022-09-14T04:48:31;12.32;;;6.07;;
26536;SDS011;14204;51.262;5.488;2022-09-14T04:51:13;11.25;;;5.70;;
26536;SDS011;14204;51.262;5.488;2022-09-14T04:53:41;10.52;;;6.00;;
26536;SDS011;14204;51.262;5.488;2022-09-14T04:56:09;10.63;;;5.70;;
26536;SDS011;14204;51.262;5.488;2022-09-14T04:58:36;16.17;;;6.30;;
26536;SDS011;14204;51.262;5.488;2022-09-14T05:01:06;10.88;;;6.20;;
26536;SDS011;14204;51.262;5.488;2022-09-14T05:03:34;11.32;;;6.28;;
26536;SDS011;14204;51.262;5.488;2022-09-14T05:06:03;14.02;;;6.55;;
26536;SDS011;14204;51.262;5.488;2022-09-14T05:08:30;11.25;;;6.38;;
26536;SDS011;14204;51.262;5.488;2022-09-14T05:10:56;18.30;;;6.47;;
26536;SDS011;14204;51.262;5.488;2022-09-14T05:13:22;13.80;;;7.55;;
26536;SDS011;14204;51.262;5.488;2022-09-14T05:15:49;13.73;;;6.53;;
26536;SDS011;14204;51.262;5.488;2022-09-14T05:18:15;9.63;;;5.50;;
26536;SDS011;14204;51.262;5.488;2022-09-14T05:20:41;16.75;;;6.63;;
26536;SDS011;14204;51.262;5.488;2022-09-14T05:23:06;13.27;;;6.38;;
26536;SDS011;14204;51.262;5.488;2022-09-14T05:25:32;14.05;;;6.25;;
26536;SDS011;14204;51.262;5.488;2022-09-14T05:27:58;11.57;;;6.25;;
26536;SDS011;14204;51.262;5.488;2022-09-14T05:30:23;13.55;;;6.20;;
26536;SDS011;14204;51.262;5.488;2022-09-14T05:32:49;10.20;;;6.20;;
26536;SDS011;14204;51.262;5.488;2022-09-14T05:35:15;16.50;;;7.22;;
26536;SDS011;14204;51.262;5.488;2022-09-14T05:37:40;10.93;;;6.28;;
26536;SDS011;14204;51.262;5.488;2022-09-14T05:40:06;11.63;;;6.45;;
26536;SDS011;14204;51.262;5.488;2022-09-14T05:42:32;10.18;;;6.57;;
26536;SDS011;14204;51.262;5.488;2022-09-14T05:44:58;12.55;;;6.05;;
26536;SDS011;14204;51.262;5.488;2022-09-14T05:47:25;11.18;;;6.30;;
26536;SDS011;14204;51.262;5.488;2022-09-14T05:49:53;8.27;;;5.15;;
26536;SDS011;14204;51.262;5.488;2022-09-14T05:52:18;12.95;;;6.00;;
26536;SDS011;14204;51.262;5.488;2022-09-14T05:54:44;12.98;;;5.30;;
26536;SDS011;14204;51.262;5.488;2022-09-14T05:57:10;12.73;;;6.25;;
26536;SDS011;14204;51.262;5.488;2022-09-14T05:59:36;14.07;;;5.35;;
26536;SDS011;14204;51.262;5.488;2022-09-14T06:02:01;11.18;;;5.22;;
26536;SDS011;14204;51.262;5.488;2022-09-14T06:04:28;15.05;;;5.72;;
26536;SDS011;14204;51.262;5.488;2022-09-14T06:06:53;12.45;;;5.25;;
26536;SDS011;14204;51.262;5.488;2022-09-14T06:09:19;9.55;;;4.72;;
26536;SDS011;14204;51.262;5.488;2022-09-14T06:11:44;9.48;;;4.25;;
26536;SDS011;14204;51.262;5.488;2022-09-14T06:14:10;10.77;;;4.70;;
26536;SDS011;14204;51.262;5.488;2022-09-14T06:16:36;10.55;;;5.45;;
26536;SDS011;14204;51.262;5.488;2022-09-14T06:19:02;20.90;;;5.43;;
26536;SDS011;14204;51.262;5.488;2022-09-14T06:21:29;15.43;;;5.15;;
26536;SDS011;14204;51.262;5.488;2022-09-14T06:23:56;11.65;;;5.32;;
26536;SDS011;14204;51.262;5.488;2022-09-14T06:26:22;10.55;;;5.07;;
26536;SDS011;14204;51.262;5.488;2022-09-14T06:28:49;14.70;;;5.45;;
26536;SDS011;14204;51.262;5.488;2022-09-14T06:31:15;13.65;;;5.47;;
26536;SDS011;14204;51.262;5.488;2022-09-14T06:33:42;13.80;;;4.88;;
26536;SDS011;14204;51.262;5.488;2022-09-14T06:36:09;16.15;;;4.75;;
26536;SDS011;14204;51.262;5.488;2022-09-14T06:38:36;7.50;;;4.68;;
26536;SDS011;14204;51.262;5.488;2022-09-14T06:41:04;11.57;;;5.10;;
26536;SDS011;14204;51.262;5.488;2022-09-14T06:43:33;10.18;;;5.45;;
26536;SDS011;14204;51.262;5.488;2022-09-14T06:46:01;10.73;;;5.35;;
26536;SDS011;14204;51.262;5.488;2022-09-14T06:48:31;10.45;;;5.47;;
26536;SDS011;14204;51.262;5.488;2022-09-14T06:50:58;11.10;;;5.30;;
26536;SDS011;14204;51.262;5.488;2022-09-14T06:53:24;11.43;;;5.82;;
26536;SDS011;14204;51.262;5.488;2022-09-14T06:55:50;10.40;;;5.40;;
26536;SDS011;14204;51.262;5.488;2022-09-14T06:58:16;11.93;;;5.40;;
26536;SDS011;14204;51.262;5.488;2022-09-14T07:00:42;12.93;;;5.80;;
26536;SDS011;14204;51.262;5.488;2022-09-14T07:03:07;17.00;;;6.43;;
26536;SDS011;14204;51.262;5.488;2022-09-14T07:05:33;17.20;;;6.78;;
26536;SDS011;14204;51.262;5.488;2022-09-14T07:07:59;12.50;;;6.43;;
26536;SDS011;14204;51.262;5.488;2022-09-14T07:10:25;8.77;;;6.18;;
26536;SDS011;14204;51.262;5.488;2022-09-14T07:12:52;8.20;;;6.15;;
26536;SDS011;14204;51.262;5.488;2022-09-14T07:15:19;13.00;;;6.10;;
26536;SDS011;14204;51.262;5.488;2022-09-14T07:17:45;14.55;;;6.80;;
26536;SDS011;14204;51.262;5.488;2022-09-14T07:20:11;7.95;;;6.15;;
26536;SDS011;14204;51.262;5.488;2022-09-14T07:22:37;10.75;;;6.40;;
26536;SDS011;14204;51.262;5.488;2022-09-14T07:25:03;15.05;;;7.22;;
26536;SDS011;14204;51.262;5.488;2022-09-14T07:27:29;11.70;;;7.15;;
26536;SDS011;14204;51.262;5.488;2022-09-14T07:29:54;14.77;;;7.60;;
26536;SDS011;14204;51.262;5.488;2022-09-14T07:32:20;12.13;;;7.25;;
26536;SDS011;14204;51.262;5.488;2022-09-14T07:34:46;11.68;;;7.40;;
26536;SDS011;14204;51.262;5.488;2022-09-14T07:37:11;15.00;;;7.70;;
26536;SDS011;14204;51.262;5.488;2022-09-14T07:39:37;12.07;;;7.20;;
26536;SDS011;14204;51.262;5.488;2022-09-14T07:42:02;12.38;;;7.57;;
26536;SDS011;14204;51.262;5.488;2022-09-14T07:44:28;10.98;;;7.82;;
26536;SDS011;14204;51.262;5.488;2022-09-14T07:46:54;12.77;;;7.65;;
26536;SDS011;14204;51.262;5.488;2022-09-14T07:49:19;12.23;;;8.15;;
26536;SDS011;14204;51.262;5.488;2022-09-14T07:51:46;10.85;;;8.23;;
26536;SDS011;14204;51.262;5.488;2022-09-14T07:54:13;15.02;;;8.95;;
26536;SDS011;14204;51.262;5.488;2022-09-14T07:56:40;13.30;;;7.50;;
26536;SDS011;14204;51.262;5.488;2022-09-14T07:59:11;13.80;;;8.50;;
26536;SDS011;14204;51.262;5.488;2022-09-14T08:01:38;14.90;;;8.80;;
26536;SDS011;14204;51.262;5.488;2022-09-14T08:04:04;13.57;;;9.57;;
26536;SDS011;14204;51.262;5.488;2022-09-14T08:06:30;12.73;;;9.52;;
26536;SDS011;14204;51.262;5.488;2022-09-14T08:08:57;11.05;;;9.38;;
26536;SDS011;14204;51.262;5.488;2022-09-14T08:11:24;14.05;;;10.30;;
26536;SDS011;14204;51.262;5.488;2022-09-14T08:13:52;10.90;;;9.73;;
26536;SDS011;14204;51.262;5.488;2022-09-14T08:16:23;16.85;;;10.45;;
26536;SDS011;14204;51.262;5.488;2022-09-14T08:18:53;13.10;;;10.75;;
26536;SDS011;14204;51.262;5.488;2022-09-14T08:21:20;13.57;;;11.43;;
26536;SDS011;14204;51.262;5.488;2022-09-14T08:23:47;13.55;;;10.82;;
26536;SDS011;14204;51.262;5.488;2022-09-14T08:26:17;15.68;;;13.27;;
26536;SDS011;14204;51.262;5.488;2022-09-14T08:28:45;14.02;;;12.40;;
26536;SDS011;14204;51.262;5.488;2022-09-14T08:31:17;18.23;;;13.13;;
26536;SDS011;14204;51.262;5.488;2022-09-14T08:33:49;13.57;;;11.57;;
26536;SDS011;14204;51.262;5.488;2022-09-14T08:36:17;15.77;;;11.52;;
26536;SDS011;14204;51.262;5.488;2022-09-14T08:38:44;17.30;;;12.98;;
26536;SDS011;14204;51.262;5.488;2022-09-14T08:43:36;13.48;;;12.07;;
26536;SDS011;14204;51.262;5.488;2022-09-14T08:46:03;13.63;;;12.23;;
26536;SDS011;14204;51.262;5.488;2022-09-14T08:48:34;12.02;;;10.63;;
26536;SDS011;14204;51.262;5.488;2022-09-14T08:51:04;14.23;;;10.80;;
26536;SDS011;14204;51.262;5.488;2022-09-14T08:53:31;15.93;;;10.07;;
26536;SDS011;14204;51.262;5.488;2022-09-14T08:56:02;12.02;;;10.70;;
26536;SDS011;14204;51.262;5.488;2022-09-14T08:58:58;12.90;;;10.82;;
26536;SDS011;14204;51.262;5.488;2022-09-14T09:01:47;12.15;;;8.73;;
26536;SDS011;14204;51.262;5.488;2022-09-14T09:04:22;6.63;;;5.00;;
26536;SDS011;14204;51.262;5.488;2022-09-14T09:11:57;5.07;;;4.47;;
26536;SDS011;14204;51.262;5.488;2022-09-14T09:14:34;5.95;;;4.60;;
26536;SDS011;14204;51.262;5.488;2022-09-14T09:17:26;5.30;;;4.47;;
26536;SDS011;14204;51.262;5.488;2022-09-14T09:22:49;4.80;;;4.30;;
26536;SDS011;14204;51.262;5.488;2022-09-14T09:28:23;4.93;;;3.25;;
26536;SDS011;14204;51.262;5.488;2022-09-14T09:30:51;5.93;;;2.70;;
26536;SDS011;14204;51.262;5.488;2022-09-14T09:33:21;5.68;;;3.15;;
26536;SDS011;14204;51.262;5.488;2022-09-14T09:35:49;5.78;;;3.40;;
26536;SDS011;14204;51.262;5.488;2022-09-14T09:38:16;5.03;;;3.50;;
26536;SDS011;14204;51.262;5.488;2022-09-14T09:40:53;7.32;;;3.63;;
26536;SDS011;14204;51.262;5.488;2022-09-14T09:43:55;5.63;;;3.08;;
26536;SDS011;14204;51.262;5.488;2022-09-14T09:46:21;8.15;;;3.10;;
26536;SDS011;14204;51.262;5.488;2022-09-14T09:48:47;4.97;;;3.20;;
26536;SDS011;14204;51.262;5.488;2022-09-14T09:51:14;4.88;;;2.53;;
26536;SDS011;14204;51.262;5.488;2022-09-14T09:54:07;5.68;;;3.10;;
26536;SDS011;14204;51.262;5.488;2022-09-14T09:56:40;7.32;;;2.55;;
26536;SDS011;14204;51.262;5.488;2022-09-14T09:59:35;7.55;;;2.70;;
26536;SDS011;14204;51.262;5.488;2022-09-14T10:02:18;4.43;;;1.98;;
26536;SDS011;14204;51.262;5.488;2022-09-14T10:07:29;6.03;;;2.45;;
26536;SDS011;14204;51.262;5.488;2022-09-14T10:10:02;6.03;;;2.45;;
26536;SDS011;14204;51.262;5.488;2022-09-14T10:12:28;7.72;;;2.42;;
26536;SDS011;14204;51.262;5.488;2022-09-14T10:17:40;5.60;;;3.13;;
26536;SDS011;14204;51.262;5.488;2022-09-14T10:20:30;6.75;;;3.03;;
26536;SDS011;14204;51.262;5.488;2022-09-14T10:22:56;10.38;;;3.10;;
26536;SDS011;14204;51.262;5.488;2022-09-14T10:26:11;7.88;;;3.10;;
26536;SDS011;14204;51.262;5.488;2022-09-14T10:28:41;4.97;;;3.17;;
26536;SDS011;14204;51.262;5.488;2022-09-14T10:33:40;7.82;;;3.30;;
26536;SDS011;14204;51.262;5.488;2022-09-14T10:38:45;6.10;;;3.47;;
26536;SDS011;14204;51.262;5.488;2022-09-14T10:41:34;4.22;;;3.55;;
26536;SDS011;14204;51.262;5.488;2022-09-14T10:52:25;5.57;;;3.35;;
26536;SDS011;14204;51.262;5.488;2022-09-14T11:03:57;7.10;;;4.43;;
26536;SDS011;14204;51.262;5.488;2022-09-14T11:09:27;7.60;;;4.35;;
26536;SDS011;14204;51.262;5.488;2022-09-14T11:12:10;4.97;;;4.35;;
26536;SDS011;14204;51.262;5.488;2022-09-14T11:20:37;7.85;;;5.00;;
26536;SDS011;14204;51.262;5.488;2022-09-14T11:34:03;8.68;;;6.57;;
26536;SDS011;14204;51.262;5.488;2022-09-14T11:36:54;8.35;;;6.50;;
26536;SDS011;14204;51.262;5.488;2022-09-14T11:39:29;8.13;;;6.80;;
26536;SDS011;14204;51.262;5.488;2022-09-14T11:42:00;11.27;;;6.70;;
26536;SDS011;14204;51.262;5.488;2022-09-14T11:44:36;9.77;;;7.80;;
26536;SDS011;14204;51.262;5.488;2022-09-14T11:47:19;12.60;;;7.63;;
26536;SDS011;14204;51.262;5.488;2022-09-14T11:49:57;11.48;;;8.70;;
26536;SDS011;14204;51.262;5.488;2022-09-14T11:52:31;12.63;;;8.75;;
26536;SDS011;14204;51.262;5.488;2022-09-14T11:54:58;9.25;;;7.35;;
26536;SDS011;14204;51.262;5.488;2022-09-14T11:57:28;11.23;;;7.68;;
26536;SDS011;14204;51.262;5.488;2022-09-14T11:59:59;15.00;;;10.20;;
26536;SDS011;14204;51.262;5.488;2022-09-14T12:12:42;9.55;;;8.32;;
26536;SDS011;14204;51.262;5.488;2022-09-14T12:15:21;8.93;;;8.00;;
26536;SDS011;14204;51.262;5.488;2022-09-14T12:17:51;11.05;;;8.80;;
26536;SDS011;14204;51.262;5.488;2022-09-14T12:20:44;10.35;;;7.82;;
26536;SDS011;14204;51.262;5.488;2022-09-14T12:35:56;9.20;;;7.97;;
26536;SDS011;14204;51.262;5.488;2022-09-14T12:43:49;10.63;;;6.30;;
26536;SDS011;14204;51.262;5.488;2022-09-14T12:53:59;8.27;;;7.47;;
26536;SDS011;14204;51.262;5.488;2022-09-14T12:59:09;9.57;;;7.25;;
26536;SDS011;14204;51.262;5.488;2022-09-14T13:04:13;9.63;;;7.13;;
26536;SDS011;14204;51.262;5.488;2022-09-14T13:06:43;9.15;;;5.95;;
26536;SDS011;14204;51.262;5.488;2022-09-14T13:09:16;7.55;;;6.43;;
26536;SDS011;14204;51.262;5.488;2022-09-14T13:11:57;8.18;;;6.72;;
26536;SDS011;14204;51.262;5.488;2022-09-14T13:14:32;7.40;;;5.97;;
26536;SDS011;14204;51.262;5.488;2022-09-14T13:17:09;9.15;;;7.32;;
26536;SDS011;14204;51.262;5.488;2022-09-14T13:19:37;7.60;;;6.40;;
26536;SDS011;14204;51.262;5.488;2022-09-14T13:22:13;10.40;;;7.07;;
26536;SDS011;14204;51.262;5.488;2022-09-14T13:24:46;8.40;;;7.60;;
26536;SDS011;14204;51.262;5.488;2022-09-14T13:32:48;13.63;;;9.55;;
26536;SDS011;14204;51.262;5.488;2022-09-14T13:35:16;13.73;;;9.20;;
26536;SDS011;14204;51.262;5.488;2022-09-14T13:37:53;13.43;;;8.40;;
26536;SDS011;14204;51.262;5.488;2022-09-14T13:40:21;11.18;;;9.40;;
26536;SDS011;14204;51.262;5.488;2022-09-14T13:42:48;11.27;;;9.50;;
26536;SDS011;14204;51.262;5.488;2022-09-14T13:45:15;12.50;;;10.40;;
26536;SDS011;14204;51.262;5.488;2022-09-14T13:47:41;17.45;;;10.60;;
26536;SDS011;14204;51.262;5.488;2022-09-14T13:50:07;13.77;;;9.32;;
26536;SDS011;14204;51.262;5.488;2022-09-14T13:52:34;16.15;;;9.93;;
26536;SDS011;14204;51.262;5.488;2022-09-14T13:58:04;19.33;;;12.07;;
26536;SDS011;14204;51.262;5.488;2022-09-14T14:03:30;13.82;;;11.43;;
26536;SDS011;14204;51.262;5.488;2022-09-14T14:06:01;14.57;;;10.88;;
26536;SDS011;14204;51.262;5.488;2022-09-14T14:08:50;15.70;;;11.95;;
26536;SDS011;14204;51.262;5.488;2022-09-14T14:11:26;17.10;;;12.73;;
26536;SDS011;14204;51.262;5.488;2022-09-14T14:17:09;24.63;;;14.37;;
26536;SDS011;14204;51.262;5.488;2022-09-14T14:19:46;15.05;;;13.55;;
26536;SDS011;14204;51.262;5.488;2022-09-14T14:24:38;20.38;;;15.25;;
26536;SDS011;14204;51.262;5.488;2022-09-14T14:30:15;20.95;;;15.35;;
26536;SDS011;14204;51.262;5.488;2022-09-14T14:32:47;16.33;;;14.32;;
26536;SDS011;14204;51.262;5.488;2022-09-14T14:35:18;17.85;;;14.93;;
26536;SDS011;14204;51.262;5.488;2022-09-14T14:37:46;16.15;;;13.43;;
26536;SDS011;14204;51.262;5.488;2022-09-14T14:40:13;14.40;;;12.88;;
26536;SDS011;14204;51.262;5.488;2022-09-14T14:42:39;15.80;;;13.07;;
26536;SDS011;14204;51.262;5.488;2022-09-14T14:45:07;17.05;;;12.82;;
26536;SDS011;14204;51.262;5.488;2022-09-14T14:50:08;22.30;;;11.77;;
26536;SDS011;14204;51.262;5.488;2022-09-14T14:52:41;13.85;;;10.98;;
26536;SDS011;14204;51.262;5.488;2022-09-14T14:55:07;13.82;;;10.90;;
26536;SDS011;14204;51.262;5.488;2022-09-14T14:57:33;16.15;;;11.25;;
26536;SDS011;14204;51.262;5.488;2022-09-14T14:59:59;14.38;;;11.73;;
26536;SDS011;14204;51.262;5.488;2022-09-14T15:02:25;15.25;;;11.90;;
26536;SDS011;14204;51.262;5.488;2022-09-14T15:04:50;14.68;;;9.80;;
26536;SDS011;14204;51.262;5.488;2022-09-14T15:07:16;13.77;;;9.95;;
26536;SDS011;14204;51.262;5.488;2022-09-14T15:09:41;17.80;;;10.20;;
26536;SDS011;14204;51.262;5.488;2022-09-14T15:12:07;11.77;;;9.05;;
26536;SDS011;14204;51.262;5.488;2022-09-14T15:14:33;12.43;;;10.07;;
26536;SDS011;14204;51.262;5.488;2022-09-14T15:16:59;11.25;;;9.02;;
26536;SDS011;14204;51.262;5.488;2022-09-14T15:19:26;12.68;;;10.40;;
26536;SDS011;14204;51.262;5.488;2022-09-14T15:21:52;12.20;;;9.10;;
26536;SDS011;14204;51.262;5.488;2022-09-14T15:24:18;15.20;;;11.50;;
26536;SDS011;14204;51.262;5.488;2022-09-14T15:26:44;16.73;;;11.38;;
26536;SDS011;14204;51.262;5.488;2022-09-14T15:29:10;18.10;;;11.25;;
26536;SDS011;14204;51.262;5.488;2022-09-14T15:31:41;15.13;;;11.23;;
26536;SDS011;14204;51.262;5.488;2022-09-14T15:34:07;15.80;;;11.57;;
26536;SDS011;14204;51.262;5.488;2022-09-14T15:36:37;18.70;;;12.30;;
26536;SDS011;14204;51.262;5.488;2022-09-14T15:39:03;16.92;;;13.02;;
26536;SDS011;14204;51.262;5.488;2022-09-14T15:41:30;17.33;;;12.27;;
26536;SDS011;14204;51.262;5.488;2022-09-14T15:43:56;16.40;;;9.93;;
26536;SDS011;14204;51.262;5.488;2022-09-14T15:46:21;15.27;;;10.48;;
26536;SDS011;14204;51.262;5.488;2022-09-14T15:48:47;13.00;;;8.95;;
26536;SDS011;14204;51.262;5.488;2022-09-14T15:51:12;18.90;;;11.20;;
26536;SDS011;14204;51.262;5.488;2022-09-14T15:53:38;13.57;;;10.23;;
26536;SDS011;14204;51.262;5.488;2022-09-14T15:56:10;17.00;;;10.70;;
26536;SDS011;14204;51.262;5.488;2022-09-14T15:58:37;12.68;;;10.00;;
26536;SDS011;14204;51.262;5.488;2022-09-14T16:01:10;14.35;;;9.35;;
26536;SDS011;14204;51.262;5.488;2022-09-14T16:03:39;12.07;;;8.88;;
26536;SDS011;14204;51.262;5.488;2022-09-14T16:06:06;14.02;;;9.43;;
26536;SDS011;14204;51.262;5.488;2022-09-14T16:08:34;17.73;;;9.98;;
26536;SDS011;14204;51.262;5.488;2022-09-14T16:11:01;13.82;;;10.15;;
26536;SDS011;14204;51.262;5.488;2022-09-14T16:13:28;14.70;;;9.43;;
26536;SDS011;14204;51.262;5.488;2022-09-14T16:18:29;13.05;;;9.07;;
26536;SDS011;14204;51.262;5.488;2022-09-14T16:20:54;13.77;;;10.25;;
26536;SDS011;14204;51.262;5.488;2022-09-14T16:23:20;19.77;;;9.98;;
26536;SDS011;14204;51.262;5.488;2022-09-14T16:25:46;12.02;;;9.55;;
26536;SDS011;14204;51.262;5.488;2022-09-14T16:28:12;15.38;;;10.30;;
26536;SDS011;14204;51.262;5.488;2022-09-14T16:30:38;13.15;;;9.55;;
26536;SDS011;14204;51.262;5.488;2022-09-14T16:33:03;17.90;;;10.10;;
26536;SDS011;14204;51.262;5.488;2022-09-14T16:35:29;14.02;;;9.60;;
26536;SDS011;14204;51.262;5.488;2022-09-14T16:37:55;12.65;;;10.75;;
26536;SDS011;14204;51.262;5.488;2022-09-14T16:40:20;16.83;;;10.45;;
26536;SDS011;14204;51.262;5.488;2022-09-14T16:42:46;12.85;;;8.35;;
26536;SDS011;14204;51.262;5.488;2022-09-14T16:45:12;12.18;;;8.55;;
26536;SDS011;14204;51.262;5.488;2022-09-14T16:47:38;13.55;;;9.68;;
26536;SDS011;14204;51.262;5.488;2022-09-14T16:50:04;13.57;;;9.68;;
26536;SDS011;14204;51.262;5.488;2022-09-14T16:52:30;12.82;;;9.65;;
26536;SDS011;14204;51.262;5.488;2022-09-14T16:54:55;18.10;;;9.93;;
26536;SDS011;14204;51.262;5.488;2022-09-14T16:57:21;18.00;;;10.13;;
26536;SDS011;14204;51.262;5.488;2022-09-14T16:59:47;12.68;;;10.40;;
26536;SDS011;14204;51.262;5.488;2022-09-14T17:02:13;12.20;;;10.23;;
26536;SDS011;14204;51.262;5.488;2022-09-14T17:04:38;14.02;;;10.52;;
26536;SDS011;14204;51.262;5.488;2022-09-14T17:07:04;19.20;;;10.00;;
26536;SDS011;14204;51.262;5.488;2022-09-14T17:09:30;13.77;;;10.02;;
26536;SDS011;14204;51.262;5.488;2022-09-14T17:11:56;20.38;;;9.80;;
26536;SDS011;14204;51.262;5.488;2022-09-14T17:14:27;17.42;;;10.07;;
26536;SDS011;14204;51.262;5.488;2022-09-14T17:16:54;12.07;;;9.75;;
26536;SDS011;14204;51.262;5.488;2022-09-14T17:19:20;12.20;;;9.68;;
26536;SDS011;14204;51.262;5.488;2022-09-14T17:21:46;18.08;;;11.05;;
26536;SDS011;14204;51.262;5.488;2022-09-14T17:24:13;13.93;;;10.40;;